sensor_id;sensor_type;location;lat;lon;timestamp;temperature;humidity
52323;DHT22;38263;52.920;6.238;2022-07-29T00:01:21;15.10;99.90
52323;DHT22;38263;52.920;6.238;2022-07-29T00:03:47;15.20;99.90
52323;DHT22;38263;52.920;6.238;2022-07-29T00:06:14;15.10;99.90
52323;DHT22;38263;52.920;6.238;2022-07-29T00:08:39;15.00;99.90
52323;DHT22;38263;52.920;6.238;2022-07-29T00:11:05;15.10;99.90
52323;DHT22;38263;52.920;6.238;2022-07-29T00:13:31;14.90;99.90
52323;DHT22;38263;52.920;6.238;2022-07-29T00:15:56;14.90;99.90
52323;DHT22;38263;52.920;6.238;2022-07-29T00:18:22;15.10;99.90
52323;DHT22;38263;52.920;6.238;2022-07-29T00:20:47;15.10;99.90
52323;DHT22;38263;52.920;6.238;2022-07-29T00:23:13;15.00;99.90
52323;DHT22;38263;52.920;6.238;2022-07-29T00:25:39;15.10;99.90
52323;DHT22;38263;52.920;6.238;2022-07-29T00:28:04;14.70;99.90
52323;DHT22;38263;52.920;6.238;2022-07-29T00:30:30;14.80;99.90
52323;DHT22;38263;52.920;6.238;2022-07-29T00:32:55;14.90;99.90
52323;DHT22;38263;52.920;6.238;2022-07-29T00:35:21;14.80;99.90
52323;DHT22;38263;52.920;6.238;2022-07-29T00:38:05;14.80;99.90
52323;DHT22;38263;52.920;6.238;2022-07-29T00:40:30;14.90;99.90
52323;DHT22;38263;52.920;6.238;2022-07-29T00:42:56;14.90;99.90
52323;DHT22;38263;52.920;6.238;2022-07-29T00:45:22;14.90;99.90
52323;DHT22;38263;52.920;6.238;2022-07-29T00:47:48;14.90;99.90
52323;DHT22;38263;52.920;6.238;2022-07-29T00:50:13;14.90;99.90
52323;DHT22;38263;52.920;6.238;2022-07-29T00:52:41;14.80;99.90
52323;DHT22;38263;52.920;6.238;2022-07-29T00:55:09;14.70;99.90
52323;DHT22;38263;52.920;6.238;2022-07-29T00:57:36;14.80;99.90
52323;DHT22;38263;52.920;6.238;2022-07-29T01:00:07;14.80;99.90
52323;DHT22;38263;52.920;6.238;2022-07-29T01:02:33;14.70;99.90
52323;DHT22;38263;52.920;6.238;2022-07-29T01:07:26;14.80;99.90
52323;DHT22;38263;52.920;6.238;2022-07-29T01:09:53;14.60;99.90
52323;DHT22;38263;52.920;6.238;2022-07-29T01:12:24;14.80;99.90
52323;DHT22;38263;52.920;6.238;2022-07-29T01:14:50;14.60;99.90
52323;DHT22;38263;52.920;6.238;2022-07-29T01:17:19;14.70;99.90
52323;DHT22;38263;52.920;6.238;2022-07-29T01:19:56;14.60;99.90
52323;DHT22;38263;52.920;6.238;2022-07-29T01:25:10;14.70;99.90
52323;DHT22;38263;52.920;6.238;2022-07-29T01:30:22;14.50;99.90
52323;DHT22;38263;52.920;6.238;2022-07-29T01:32:54;14.80;99.90
52323;DHT22;38263;52.920;6.238;2022-07-29T01:35:34;14.60;99.90
52323;DHT22;38263;52.920;6.238;2022-07-29T01:38:09;14.70;99.90
52323;DHT22;38263;52.920;6.238;2022-07-29T01:40:40;14.70;99.90
52323;DHT22;38263;52.920;6.238;2022-07-29T01:43:10;14.60;99.90
52323;DHT22;38263;52.920;6.238;2022-07-29T01:45:59;14.50;99.90
52323;DHT22;38263;52.920;6.238;2022-07-29T01:48:39;14.70;99.90
52323;DHT22;38263;52.920;6.238;2022-07-29T01:51:25;14.60;99.90
52323;DHT22;38263;52.920;6.238;2022-07-29T01:56:43;14.80;99.90
52323;DHT22;38263;52.920;6.238;2022-07-29T01:59:11;14.50;99.90
52323;DHT22;38263;52.920;6.238;2022-07-29T02:01:39;14.70;99.90
52323;DHT22;38263;52.920;6.238;2022-07-29T02:04:07;14.60;99.90
52323;DHT22;38263;52.920;6.238;2022-07-29T02:06:37;14.50;99.90
52323;DHT22;38263;52.920;6.238;2022-07-29T02:09:04;14.70;99.90
52323;DHT22;38263;52.920;6.238;2022-07-29T02:11:32;14.70;99.90
52323;DHT22;38263;52.920;6.238;2022-07-29T02:13:58;14.60;99.90
52323;DHT22;38263;52.920;6.238;2022-07-29T02:16:26;14.70;99.90
52323;DHT22;38263;52.920;6.238;2022-07-29T02:18:55;14.70;99.90
52323;DHT22;38263;52.920;6.238;2022-07-29T02:21:24;14.70;99.90
52323;DHT22;38263;52.920;6.238;2022-07-29T02:23:52;14.70;99.90
52323;DHT22;38263;52.920;6.238;2022-07-29T02:26:20;14.70;99.90
52323;DHT22;38263;52.920;6.238;2022-07-29T02:28:48;14.50;99.90
52323;DHT22;38263;52.920;6.238;2022-07-29T02:31:15;14.50;99.90
52323;DHT22;38263;52.920;6.238;2022-07-29T02:33:43;14.60;99.90
52323;DHT22;38263;52.920;6.238;2022-07-29T02:36:09;14.50;99.90
52323;DHT22;38263;52.920;6.238;2022-07-29T02:38:35;14.70;99.90
52323;DHT22;38263;52.920;6.238;2022-07-29T02:41:19;14.70;99.90
52323;DHT22;38263;52.920;6.238;2022-07-29T02:43:48;14.50;99.90
52323;DHT22;38263;52.920;6.238;2022-07-29T02:46:19;14.70;99.90
52323;DHT22;38263;52.920;6.238;2022-07-29T02:51:53;14.70;99.90
52323;DHT22;38263;52.920;6.238;2022-07-29T02:57:22;14.70;99.90
52323;DHT22;38263;52.920;6.238;2022-07-29T02:59:53;14.70;99.90
52323;DHT22;38263;52.920;6.238;2022-07-29T03:02:20;14.70;99.90
52323;DHT22;38263;52.920;6.238;2022-07-29T03:04:47;14.70;99.90
52323;DHT22;38263;52.920;6.238;2022-07-29T03:07:15;14.70;99.90
52323;DHT22;38263;52.920;6.238;2022-07-29T03:09:44;14.60;99.90
52323;DHT22;38263;52.920;6.238;2022-07-29T03:12:10;14.50;99.90
52323;DHT22;38263;52.920;6.238;2022-07-29T03:14:37;14.70;99.90
52323;DHT22;38263;52.920;6.238;2022-07-29T03:17:03;14.70;99.90
52323;DHT22;38263;52.920;6.238;2022-07-29T03:19:29;14.60;99.90
52323;DHT22;38263;52.920;6.238;2022-07-29T03:21:57;14.70;99.90
52323;DHT22;38263;52.920;6.238;2022-07-29T03:24:28;14.70;99.90
52323;DHT22;38263;52.920;6.238;2022-07-29T03:26:55;14.60;99.90
52323;DHT22;38263;52.920;6.238;2022-07-29T03:29:21;14.70;99.90
52323;DHT22;38263;52.920;6.238;2022-07-29T03:31:46;14.70;99.90
52323;DHT22;38263;52.920;6.238;2022-07-29T03:34:12;14.70;99.90
52323;DHT22;38263;52.920;6.238;2022-07-29T03:36:37;14.70;99.90
52323;DHT22;38263;52.920;6.238;2022-07-29T03:39:04;14.60;99.90
52323;DHT22;38263;52.920;6.238;2022-07-29T03:41:30;14.60;99.90
52323;DHT22;38263;52.920;6.238;2022-07-29T03:43:57;14.60;99.90
52323;DHT22;38263;52.920;6.238;2022-07-29T03:46:26;14.50;99.90
52323;DHT22;38263;52.920;6.238;2022-07-29T03:48:58;14.60;99.90
52323;DHT22;38263;52.920;6.238;2022-07-29T03:51:25;14.60;99.90
52323;DHT22;38263;52.920;6.238;2022-07-29T03:53:51;14.50;99.90
52323;DHT22;38263;52.920;6.238;2022-07-29T03:56:21;14.30;99.90
52323;DHT22;38263;52.920;6.238;2022-07-29T03:58:49;14.50;99.90
52323;DHT22;38263;52.920;6.238;2022-07-29T04:01:17;14.40;99.90
52323;DHT22;38263;52.920;6.238;2022-07-29T04:03:44;14.60;99.90
52323;DHT22;38263;52.920;6.238;2022-07-29T04:06:12;14.30;99.90
52323;DHT22;38263;52.920;6.238;2022-07-29T04:08:38;14.40;99.90
52323;DHT22;38263;52.920;6.238;2022-07-29T04:11:04;14.40;99.90
52323;DHT22;38263;52.920;6.238;2022-07-29T04:13:31;14.30;99.90
52323;DHT22;38263;52.920;6.238;2022-07-29T04:15:57;14.40;99.90
52323;DHT22;38263;52.920;6.238;2022-07-29T04:18:23;14.40;99.90
52323;DHT22;38263;52.920;6.238;2022-07-29T04:20:49;14.30;99.90
52323;DHT22;38263;52.920;6.238;2022-07-29T04:25:41;14.20;99.90
52323;DHT22;38263;52.920;6.238;2022-07-29T04:28:07;14.30;99.90
52323;DHT22;38263;52.920;6.238;2022-07-29T04:30:33;14.30;99.90
52323;DHT22;38263;52.920;6.238;2022-07-29T04:33:02;14.20;99.90
52323;DHT22;38263;52.920;6.238;2022-07-29T04:35:29;14.10;99.90
52323;DHT22;38263;52.920;6.238;2022-07-29T04:37:54;14.20;99.90
52323;DHT22;38263;52.920;6.238;2022-07-29T04:40:20;14.20;99.90
52323;DHT22;38263;52.920;6.238;2022-07-29T04:42:46;14.40;99.90
52323;DHT22;38263;52.920;6.238;2022-07-29T04:45:11;14.30;99.90
52323;DHT22;38263;52.920;6.238;2022-07-29T04:47:37;14.20;99.90
52323;DHT22;38263;52.920;6.238;2022-07-29T04:50:03;14.40;99.90
52323;DHT22;38263;52.920;6.238;2022-07-29T04:52:28;14.40;99.90
52323;DHT22;38263;52.920;6.238;2022-07-29T04:54:54;14.10;99.90
52323;DHT22;38263;52.920;6.238;2022-07-29T04:57:20;14.20;99.90
52323;DHT22;38263;52.920;6.238;2022-07-29T04:59:45;14.40;99.90
52323;DHT22;38263;52.920;6.238;2022-07-29T05:02:11;14.30;99.90
52323;DHT22;38263;52.920;6.238;2022-07-29T05:04:36;14.40;99.90
52323;DHT22;38263;52.920;6.238;2022-07-29T05:07:02;14.40;99.90
52323;DHT22;38263;52.920;6.238;2022-07-29T05:09:27;14.50;99.90
52323;DHT22;38263;52.920;6.238;2022-07-29T05:11:53;14.30;99.90
52323;DHT22;38263;52.920;6.238;2022-07-29T05:14:18;14.40;99.90
52323;DHT22;38263;52.920;6.238;2022-07-29T05:16:44;14.50;99.90
52323;DHT22;38263;52.920;6.238;2022-07-29T05:21:36;14.50;99.90
52323;DHT22;38263;52.920;6.238;2022-07-29T05:24:01;14.40;99.90
52323;DHT22;38263;52.920;6.238;2022-07-29T05:26:27;14.50;99.90
52323;DHT22;38263;52.920;6.238;2022-07-29T05:28:52;14.50;99.90
52323;DHT22;38263;52.920;6.238;2022-07-29T05:31:19;14.60;99.90
52323;DHT22;38263;52.920;6.238;2022-07-29T05:36:11;14.70;99.90
52323;DHT22;38263;52.920;6.238;2022-07-29T05:41:04;14.60;99.90
52323;DHT22;38263;52.920;6.238;2022-07-29T05:48:21;14.90;99.90
52323;DHT22;38263;52.920;6.238;2022-07-29T05:50:47;14.90;99.90
52323;DHT22;38263;52.920;6.238;2022-07-29T05:53:13;15.10;99.90
52323;DHT22;38263;52.920;6.238;2022-07-29T05:55:38;15.10;99.90
52323;DHT22;38263;52.920;6.238;2022-07-29T06:00:30;15.10;99.90
52323;DHT22;38263;52.920;6.238;2022-07-29T06:02:55;15.50;99.90
52323;DHT22;38263;52.920;6.238;2022-07-29T06:05:22;15.60;99.90
52323;DHT22;38263;52.920;6.238;2022-07-29T06:07:48;15.80;99.90
52323;DHT22;38263;52.920;6.238;2022-07-29T06:10:14;16.10;99.90
52323;DHT22;38263;52.920;6.238;2022-07-29T06:12:39;16.10;99.90
52323;DHT22;38263;52.920;6.238;2022-07-29T06:15:05;16.00;99.90
52323;DHT22;38263;52.920;6.238;2022-07-29T06:17:31;15.90;99.90
52323;DHT22;38263;52.920;6.238;2022-07-29T06:19:57;16.00;99.90
52323;DHT22;38263;52.920;6.238;2022-07-29T06:22:22;15.80;99.90
52323;DHT22;38263;52.920;6.238;2022-07-29T06:24:49;15.70;99.90
52323;DHT22;38263;52.920;6.238;2022-07-29T06:27:14;15.80;99.90
52323;DHT22;38263;52.920;6.238;2022-07-29T06:29:40;14.30;99.90
52323;DHT22;38263;52.920;6.238;2022-07-29T06:34:32;15.60;99.90
52323;DHT22;38263;52.920;6.238;2022-07-29T06:41:50;15.60;99.90
52323;DHT22;38263;52.920;6.238;2022-07-29T06:44:16;15.80;99.90
52323;DHT22;38263;52.920;6.238;2022-07-29T06:46:42;15.50;99.90
52323;DHT22;38263;52.920;6.238;2022-07-29T06:49:09;15.90;99.90
52323;DHT22;38263;52.920;6.238;2022-07-29T06:51:35;15.60;99.90
52323;DHT22;38263;52.920;6.238;2022-07-29T06:54:02;15.70;99.90
52323;DHT22;38263;52.920;6.238;2022-07-29T06:56:29;15.70;99.90
52323;DHT22;38263;52.920;6.238;2022-07-29T06:58:54;15.70;99.90
52323;DHT22;38263;52.920;6.238;2022-07-29T07:01:20;15.80;99.90
52323;DHT22;38263;52.920;6.238;2022-07-29T07:03:45;15.80;99.90
52323;DHT22;38263;52.920;6.238;2022-07-29T07:06:11;15.80;99.90
52323;DHT22;38263;52.920;6.238;2022-07-29T07:08:36;15.90;99.90
52323;DHT22;38263;52.920;6.238;2022-07-29T07:11:02;15.70;99.90
52323;DHT22;38263;52.920;6.238;2022-07-29T07:13:29;15.80;99.90
52323;DHT22;38263;52.920;6.238;2022-07-29T07:15:59;15.80;99.90
52323;DHT22;38263;52.920;6.238;2022-07-29T07:18:25;15.80;99.90
52323;DHT22;38263;52.920;6.238;2022-07-29T07:20:50;15.80;99.90
52323;DHT22;38263;52.920;6.238;2022-07-29T07:23:16;15.80;99.90
52323;DHT22;38263;52.920;6.238;2022-07-29T07:25:42;15.80;99.90
52323;DHT22;38263;52.920;6.238;2022-07-29T07:28:07;15.80;99.90
52323;DHT22;38263;52.920;6.238;2022-07-29T07:30:33;15.80;99.90
52323;DHT22;38263;52.920;6.238;2022-07-29T07:32:59;15.80;99.90
52323;DHT22;38263;52.920;6.238;2022-07-29T07:35:25;15.80;99.90
52323;DHT22;38263;52.920;6.238;2022-07-29T07:37:53;15.80;99.90
52323;DHT22;38263;52.920;6.238;2022-07-29T07:40:18;15.80;99.90
52323;DHT22;38263;52.920;6.238;2022-07-29T07:42:44;15.70;99.90
52323;DHT22;38263;52.920;6.238;2022-07-29T07:45:11;15.80;99.90
52323;DHT22;38263;52.920;6.238;2022-07-29T07:47:38;15.80;99.90
52323;DHT22;38263;52.920;6.238;2022-07-29T07:50:08;15.80;99.90
52323;DHT22;38263;52.920;6.238;2022-07-29T07:52:34;15.60;99.90
52323;DHT22;38263;52.920;6.238;2022-07-29T07:55:00;15.80;99.90
52323;DHT22;38263;52.920;6.238;2022-07-29T07:57:26;15.90;99.90
52323;DHT22;38263;52.920;6.238;2022-07-29T07:59:52;15.80;99.90
52323;DHT22;38263;52.920;6.238;2022-07-29T08:02:17;15.80;99.90
52323;DHT22;38263;52.920;6.238;2022-07-29T08:04:43;15.80;99.90
52323;DHT22;38263;52.920;6.238;2022-07-29T08:07:08;15.70;99.90
52323;DHT22;38263;52.920;6.238;2022-07-29T08:09:34;15.90;99.90
52323;DHT22;38263;52.920;6.238;2022-07-29T08:12:00;16.10;99.90
52323;DHT22;38263;52.920;6.238;2022-07-29T08:14:29;16.00;99.90
52323;DHT22;38263;52.920;6.238;2022-07-29T08:16:55;15.90;99.90
52323;DHT22;38263;52.920;6.238;2022-07-29T08:19:21;16.00;99.90
52323;DHT22;38263;52.920;6.238;2022-07-29T08:21:46;15.90;99.90
52323;DHT22;38263;52.920;6.238;2022-07-29T08:24:12;16.10;99.90
52323;DHT22;38263;52.920;6.238;2022-07-29T08:26:56;16.00;99.90
52323;DHT22;38263;52.920;6.238;2022-07-29T08:29:21;16.10;99.90
52323;DHT22;38263;52.920;6.238;2022-07-29T08:31:47;16.00;99.90
52323;DHT22;38263;52.920;6.238;2022-07-29T08:34:13;16.20;99.90
52323;DHT22;38263;52.920;6.238;2022-07-29T08:36:38;16.10;99.90
52323;DHT22;38263;52.920;6.238;2022-07-29T08:39:04;16.10;99.90
52323;DHT22;38263;52.920;6.238;2022-07-29T08:41:30;16.20;99.90
52323;DHT22;38263;52.920;6.238;2022-07-29T08:43:56;16.00;99.90
52323;DHT22;38263;52.920;6.238;2022-07-29T08:46:23;16.10;99.90
52323;DHT22;38263;52.920;6.238;2022-07-29T08:48:49;16.30;99.90
52323;DHT22;38263;52.920;6.238;2022-07-29T08:51:17;16.20;99.90
52323;DHT22;38263;52.920;6.238;2022-07-29T08:53:44;16.30;99.90
52323;DHT22;38263;52.920;6.238;2022-07-29T08:56:16;16.30;99.90
52323;DHT22;38263;52.920;6.238;2022-07-29T08:58:44;16.30;99.90
52323;DHT22;38263;52.920;6.238;2022-07-29T09:01:11;16.40;99.90
52323;DHT22;38263;52.920;6.238;2022-07-29T09:03:38;16.30;99.90
52323;DHT22;38263;52.920;6.238;2022-07-29T09:06:05;16.50;99.90
52323;DHT22;38263;52.920;6.238;2022-07-29T09:08:32;16.60;99.90
52323;DHT22;38263;52.920;6.238;2022-07-29T09:10:58;16.70;99.90
52323;DHT22;38263;52.920;6.238;2022-07-29T09:13:26;16.60;99.90
52323;DHT22;38263;52.920;6.238;2022-07-29T09:15:52;16.50;99.90
52323;DHT22;38263;52.920;6.238;2022-07-29T09:18:34;16.70;99.90
52323;DHT22;38263;52.920;6.238;2022-07-29T09:21:03;16.70;99.90
52323;DHT22;38263;52.920;6.238;2022-07-29T09:26:35;17.00;99.90
52323;DHT22;38263;52.920;6.238;2022-07-29T09:29:09;17.00;99.90
52323;DHT22;38263;52.920;6.238;2022-07-29T09:31:37;17.00;99.90
52323;DHT22;38263;52.920;6.238;2022-07-29T09:34:04;17.20;99.90
52323;DHT22;38263;52.920;6.238;2022-07-29T09:36:29;17.30;99.90
52323;DHT22;38263;52.920;6.238;2022-07-29T09:39:01;17.50;99.90
52323;DHT22;38263;52.920;6.238;2022-07-29T09:41:28;17.50;99.90
52323;DHT22;38263;52.920;6.238;2022-07-29T09:43:55;17.50;99.90
52323;DHT22;38263;52.920;6.238;2022-07-29T09:46:21;17.60;99.90
52323;DHT22;38263;52.920;6.238;2022-07-29T09:49:06;17.50;99.90
52323;DHT22;38263;52.920;6.238;2022-07-29T09:51:33;17.50;99.90
52323;DHT22;38263;52.920;6.238;2022-07-29T09:53:58;17.70;99.90
52323;DHT22;38263;52.920;6.238;2022-07-29T09:56:39;17.80;99.90
52323;DHT22;38263;52.920;6.238;2022-07-29T09:59:05;17.80;99.90
52323;DHT22;38263;52.920;6.238;2022-07-29T10:01:31;17.90;99.90
52323;DHT22;38263;52.920;6.238;2022-07-29T10:03:57;17.90;99.90
52323;DHT22;38263;52.920;6.238;2022-07-29T10:06:23;17.90;99.90
52323;DHT22;38263;52.920;6.238;2022-07-29T10:11:16;18.30;99.90
52323;DHT22;38263;52.920;6.238;2022-07-29T10:13:44;18.60;99.90
52323;DHT22;38263;52.920;6.238;2022-07-29T10:16:10;18.90;99.90
52323;DHT22;38263;52.920;6.238;2022-07-29T10:18:38;19.20;99.90
52323;DHT22;38263;52.920;6.238;2022-07-29T10:21:04;19.30;99.90
52323;DHT22;38263;52.920;6.238;2022-07-29T10:23:31;19.40;99.90
52323;DHT22;38263;52.920;6.238;2022-07-29T10:25:57;19.60;99.90
52323;DHT22;38263;52.920;6.238;2022-07-29T10:28:23;19.80;99.90
52323;DHT22;38263;52.920;6.238;2022-07-29T10:30:51;20.00;99.90
52323;DHT22;38263;52.920;6.238;2022-07-29T10:33:39;19.90;99.90
52323;DHT22;38263;52.920;6.238;2022-07-29T10:36:18;20.40;99.90
52323;DHT22;38263;52.920;6.238;2022-07-29T10:41:36;20.60;99.90
52323;DHT22;38263;52.920;6.238;2022-07-29T10:44:19;20.60;99.90
52323;DHT22;38263;52.920;6.238;2022-07-29T10:46:46;20.40;99.90
52323;DHT22;38263;52.920;6.238;2022-07-29T10:49:25;20.40;99.90
52323;DHT22;38263;52.920;6.238;2022-07-29T10:52:00;20.40;99.90
52323;DHT22;38263;52.920;6.238;2022-07-29T10:57:33;20.60;99.90
52323;DHT22;38263;52.920;6.238;2022-07-29T11:05:07;20.50;99.90
52323;DHT22;38263;52.920;6.238;2022-07-29T11:07:34;20.70;99.90
52323;DHT22;38263;52.920;6.238;2022-07-29T11:15:08;20.70;99.90
52323;DHT22;38263;52.920;6.238;2022-07-29T11:20:45;21.10;99.90
52323;DHT22;38263;52.920;6.238;2022-07-29T11:23:18;21.10;99.90
52323;DHT22;38263;52.920;6.238;2022-07-29T11:25:46;20.80;99.90
52323;DHT22;38263;52.920;6.238;2022-07-29T11:28:30;20.90;99.90
52323;DHT22;38263;52.920;6.238;2022-07-29T11:30:56;20.90;99.90
52323;DHT22;38263;52.920;6.238;2022-07-29T11:33:33;20.90;99.90
52323;DHT22;38263;52.920;6.238;2022-07-29T11:38:34;20.70;99.90
52323;DHT22;38263;52.920;6.238;2022-07-29T11:41:22;20.70;99.90
52323;DHT22;38263;52.920;6.238;2022-07-29T11:43:56;21.00;99.90
52323;DHT22;38263;52.920;6.238;2022-07-29T11:46:47;20.70;99.90
52323;DHT22;38263;52.920;6.238;2022-07-29T11:49:22;21.10;99.90
52323;DHT22;38263;52.920;6.238;2022-07-29T11:51:52;21.20;99.90
52323;DHT22;38263;52.920;6.238;2022-07-29T11:54:24;21.20;99.90
52323;DHT22;38263;52.920;6.238;2022-07-29T11:56:52;21.20;99.90
52323;DHT22;38263;52.920;6.238;2022-07-29T11:59:19;21.30;99.90
52323;DHT22;38263;52.920;6.238;2022-07-29T12:01:55;21.30;99.90
52323;DHT22;38263;52.920;6.238;2022-07-29T12:04:20;21.20;99.90
52323;DHT22;38263;52.920;6.238;2022-07-29T12:06:52;21.50;99.90
52323;DHT22;38263;52.920;6.238;2022-07-29T12:09:18;21.50;99.90
52323;DHT22;38263;52.920;6.238;2022-07-29T12:11:46;21.60;99.90
52323;DHT22;38263;52.920;6.238;2022-07-29T12:14:32;21.60;99.90
52323;DHT22;38263;52.920;6.238;2022-07-29T12:16:59;21.70;99.90
52323;DHT22;38263;52.920;6.238;2022-07-29T12:19:25;21.70;99.90
52323;DHT22;38263;52.920;6.238;2022-07-29T12:21:55;21.80;99.90
52323;DHT22;38263;52.920;6.238;2022-07-29T12:24:22;22.20;99.90
52323;DHT22;38263;52.920;6.238;2022-07-29T12:26:53;21.80;99.90
52323;DHT22;38263;52.920;6.238;2022-07-29T12:29:19;22.10;99.90
52323;DHT22;38263;52.920;6.238;2022-07-29T12:31:45;22.00;99.90
52323;DHT22;38263;52.920;6.238;2022-07-29T12:34:13;21.80;99.90
52323;DHT22;38263;52.920;6.238;2022-07-29T12:36:40;22.30;99.90
52323;DHT22;38263;52.920;6.238;2022-07-29T12:39:06;22.10;99.90
52323;DHT22;38263;52.920;6.238;2022-07-29T12:41:31;21.70;99.90
52323;DHT22;38263;52.920;6.238;2022-07-29T12:43:57;22.00;99.90
52323;DHT22;38263;52.920;6.238;2022-07-29T12:46:23;21.80;99.90
52323;DHT22;38263;52.920;6.238;2022-07-29T12:48:53;21.80;99.90
52323;DHT22;38263;52.920;6.238;2022-07-29T12:51:37;21.60;99.90
52323;DHT22;38263;52.920;6.238;2022-07-29T12:54:04;21.60;99.90
52323;DHT22;38263;52.920;6.238;2022-07-29T12:56:30;21.60;99.90
52323;DHT22;38263;52.920;6.238;2022-07-29T12:58:56;21.90;99.90
52323;DHT22;38263;52.920;6.238;2022-07-29T13:01:21;22.10;99.90
52323;DHT22;38263;52.920;6.238;2022-07-29T13:06:43;22.30;99.90
52323;DHT22;38263;52.920;6.238;2022-07-29T13:09:11;22.10;99.90
52323;DHT22;38263;52.920;6.238;2022-07-29T13:14:07;22.60;99.90
52323;DHT22;38263;52.920;6.238;2022-07-29T13:16:34;22.60;99.90
52323;DHT22;38263;52.920;6.238;2022-07-29T13:19:10;22.60;99.90
52323;DHT22;38263;52.920;6.238;2022-07-29T13:21:38;22.50;99.90
52323;DHT22;38263;52.920;6.238;2022-07-29T13:24:05;22.50;99.90
52323;DHT22;38263;52.920;6.238;2022-07-29T13:26:31;22.70;99.90
52323;DHT22;38263;52.920;6.238;2022-07-29T13:28:57;22.80;99.90
52323;DHT22;38263;52.920;6.238;2022-07-29T13:31:22;22.70;99.90
52323;DHT22;38263;52.920;6.238;2022-07-29T13:33:48;22.70;99.90
52323;DHT22;38263;52.920;6.238;2022-07-29T13:36:13;22.70;99.90
52323;DHT22;38263;52.920;6.238;2022-07-29T13:38:39;22.50;99.90
52323;DHT22;38263;52.920;6.238;2022-07-29T13:41:05;22.70;99.90
52323;DHT22;38263;52.920;6.238;2022-07-29T13:43:30;23.10;99.90
52323;DHT22;38263;52.920;6.238;2022-07-29T13:45:56;22.60;99.90
52323;DHT22;38263;52.920;6.238;2022-07-29T13:48:22;23.90;99.90
52323;DHT22;38263;52.920;6.238;2022-07-29T13:50:47;23.00;99.90
52323;DHT22;38263;52.920;6.238;2022-07-29T13:53:13;23.00;99.90
52323;DHT22;38263;52.920;6.238;2022-07-29T13:55:39;23.10;99.90
52323;DHT22;38263;52.920;6.238;2022-07-29T13:58:05;23.10;99.90
52323;DHT22;38263;52.920;6.238;2022-07-29T14:00:30;23.20;99.90
52323;DHT22;38263;52.920;6.238;2022-07-29T14:02:56;23.20;99.90
52323;DHT22;38263;52.920;6.238;2022-07-29T14:05:22;23.30;99.90
52323;DHT22;38263;52.920;6.238;2022-07-29T14:07:48;23.30;99.90
52323;DHT22;38263;52.920;6.238;2022-07-29T14:10:13;23.30;99.90
52323;DHT22;38263;52.920;6.238;2022-07-29T14:12:39;23.00;99.90
52323;DHT22;38263;52.920;6.238;2022-07-29T14:15:07;23.10;99.90
52323;DHT22;38263;52.920;6.238;2022-07-29T14:17:33;23.00;99.90
52323;DHT22;38263;52.920;6.238;2022-07-29T14:19:59;22.90;99.90
52323;DHT22;38263;52.920;6.238;2022-07-29T14:22:24;23.10;99.90
52323;DHT22;38263;52.920;6.238;2022-07-29T14:24:50;22.60;99.90
52323;DHT22;38263;52.920;6.238;2022-07-29T14:27:16;22.90;99.90
52323;DHT22;38263;52.920;6.238;2022-07-29T14:29:41;22.90;99.90
52323;DHT22;38263;52.920;6.238;2022-07-29T14:32:08;22.90;99.90
52323;DHT22;38263;52.920;6.238;2022-07-29T14:34:36;23.00;99.90
52323;DHT22;38263;52.920;6.238;2022-07-29T14:37:02;23.20;99.90
52323;DHT22;38263;52.920;6.238;2022-07-29T14:39:30;23.00;99.90
52323;DHT22;38263;52.920;6.238;2022-07-29T14:41:56;23.20;99.90
52323;DHT22;38263;52.920;6.238;2022-07-29T14:44:21;23.00;99.90
52323;DHT22;38263;52.920;6.238;2022-07-29T14:46:47;23.10;99.90
52323;DHT22;38263;52.920;6.238;2022-07-29T14:49:12;23.10;99.90
52323;DHT22;38263;52.920;6.238;2022-07-29T14:51:38;23.10;99.90
52323;DHT22;38263;52.920;6.238;2022-07-29T14:54:04;23.30;99.90
52323;DHT22;38263;52.920;6.238;2022-07-29T14:56:29;23.30;99.90
52323;DHT22;38263;52.920;6.238;2022-07-29T14:58:56;23.40;99.90
52323;DHT22;38263;52.920;6.238;2022-07-29T15:01:22;23.50;99.90
52323;DHT22;38263;52.920;6.238;2022-07-29T15:03:48;23.30;99.90
52323;DHT22;38263;52.920;6.238;2022-07-29T15:06:14;23.30;99.90
52323;DHT22;38263;52.920;6.238;2022-07-29T15:08:39;23.20;99.90
52323;DHT22;38263;52.920;6.238;2022-07-29T15:11:05;23.50;99.90
52323;DHT22;38263;52.920;6.238;2022-07-29T15:13:30;23.50;99.90
52323;DHT22;38263;52.920;6.238;2022-07-29T15:15:56;23.40;99.90
52323;DHT22;38263;52.920;6.238;2022-07-29T15:18:21;23.40;99.90
52323;DHT22;38263;52.920;6.238;2022-07-29T15:20:47;23.00;99.90
52323;DHT22;38263;52.920;6.238;2022-07-29T15:23:12;23.20;99.90
52323;DHT22;38263;52.920;6.238;2022-07-29T15:25:39;23.10;99.90
52323;DHT22;38263;52.920;6.238;2022-07-29T15:28:05;23.30;99.90
52323;DHT22;38263;52.920;6.238;2022-07-29T15:30:33;23.10;99.90
52323;DHT22;38263;52.920;6.238;2022-07-29T15:33:00;23.30;99.90
52323;DHT22;38263;52.920;6.238;2022-07-29T15:35:25;23.20;99.90
52323;DHT22;38263;52.920;6.238;2022-07-29T15:37:51;22.90;99.90
52323;DHT22;38263;52.920;6.238;2022-07-29T15:40:17;23.20;99.90
52323;DHT22;38263;52.920;6.238;2022-07-29T15:42:42;23.40;99.90
52323;DHT22;38263;52.920;6.238;2022-07-29T15:45:08;23.40;99.90
52323;DHT22;38263;52.920;6.238;2022-07-29T15:47:37;23.40;99.90
52323;DHT22;38263;52.920;6.238;2022-07-29T15:50:02;23.50;99.90
52323;DHT22;38263;52.920;6.238;2022-07-29T15:52:28;23.50;99.90
52323;DHT22;38263;52.920;6.238;2022-07-29T15:54:55;23.30;99.90
52323;DHT22;38263;52.920;6.238;2022-07-29T15:57:21;23.50;99.90
52323;DHT22;38263;52.920;6.238;2022-07-29T15:59:47;23.30;99.90
52323;DHT22;38263;52.920;6.238;2022-07-29T16:02:12;23.60;99.90
52323;DHT22;38263;52.920;6.238;2022-07-29T16:04:38;23.60;99.90
52323;DHT22;38263;52.920;6.238;2022-07-29T16:07:03;23.50;99.90
52323;DHT22;38263;52.920;6.238;2022-07-29T16:09:29;23.60;99.90
52323;DHT22;38263;52.920;6.238;2022-07-29T16:11:55;23.60;99.90
52323;DHT22;38263;52.920;6.238;2022-07-29T16:14:20;23.70;99.90
52323;DHT22;38263;52.920;6.238;2022-07-29T16:16:46;23.80;99.90
52323;DHT22;38263;52.920;6.238;2022-07-29T16:19:12;23.90;99.90
52323;DHT22;38263;52.920;6.238;2022-07-29T16:21:38;23.90;99.90
52323;DHT22;38263;52.920;6.238;2022-07-29T16:24:05;24.10;99.90
52323;DHT22;38263;52.920;6.238;2022-07-29T16:26:31;23.80;99.90
52323;DHT22;38263;52.920;6.238;2022-07-29T16:28:57;23.90;99.90
52323;DHT22;38263;52.920;6.238;2022-07-29T16:31:24;24.00;99.90
52323;DHT22;38263;52.920;6.238;2022-07-29T16:33:50;23.80;99.90
52323;DHT22;38263;52.920;6.238;2022-07-29T16:36:16;23.90;99.90
52323;DHT22;38263;52.920;6.238;2022-07-29T16:38:42;23.70;99.90
52323;DHT22;38263;52.920;6.238;2022-07-29T16:41:08;23.70;99.90
52323;DHT22;38263;52.920;6.238;2022-07-29T16:43:34;23.50;99.90
52323;DHT22;38263;52.920;6.238;2022-07-29T16:45:59;23.80;99.90